sensor_id;sensor_type;location;lat;lon;timestamp;temperature;humidity
21698;DHT22;11010;49.548;11.926;2023-05-08T00:02:05;14.80;99.90
21698;DHT22;11010;49.548;11.926;2023-05-08T00:04:32;14.80;99.90
21698;DHT22;11010;49.548;11.926;2023-05-08T00:06:59;14.80;99.90
21698;DHT22;11010;49.548;11.926;2023-05-08T00:09:26;14.60;99.90
21698;DHT22;11010;49.548;11.926;2023-05-08T00:11:53;14.70;99.90
21698;DHT22;11010;49.548;11.926;2023-05-08T00:14:21;14.60;99.90
21698;DHT22;11010;49.548;11.926;2023-05-08T00:16:48;14.50;99.90
21698;DHT22;11010;49.548;11.926;2023-05-08T00:19:15;14.70;99.90
21698;DHT22;11010;49.548;11.926;2023-05-08T00:21:42;14.90;99.90
21698;DHT22;11010;49.548;11.926;2023-05-08T00:24:09;15.00;99.90
21698;DHT22;11010;49.548;11.926;2023-05-08T00:26:36;14.70;99.90
21698;DHT22;11010;49.548;11.926;2023-05-08T00:29:03;14.60;99.90
21698;DHT22;11010;49.548;11.926;2023-05-08T00:31:32;14.70;99.90
21698;DHT22;11010;49.548;11.926;2023-05-08T00:33:59;14.60;99.90
21698;DHT22;11010;49.548;11.926;2023-05-08T00:36:26;14.30;99.90
21698;DHT22;11010;49.548;11.926;2023-05-08T00:38:54;14.50;99.90
21698;DHT22;11010;49.548;11.926;2023-05-08T00:41:21;14.50;99.90
21698;DHT22;11010;49.548;11.926;2023-05-08T00:43:48;14.40;99.90
21698;DHT22;11010;49.548;11.926;2023-05-08T00:46:15;14.40;99.90
21698;DHT22;11010;49.548;11.926;2023-05-08T00:48:43;14.40;99.90
21698;DHT22;11010;49.548;11.926;2023-05-08T00:51:11;14.30;99.90
21698;DHT22;11010;49.548;11.926;2023-05-08T00:53:40;14.40;99.90
21698;DHT22;11010;49.548;11.926;2023-05-08T00:56:10;14.30;99.90
21698;DHT22;11010;49.548;11.926;2023-05-08T00:58:39;13.80;99.90
21698;DHT22;11010;49.548;11.926;2023-05-08T01:01:07;13.50;99.90
21698;DHT22;11010;49.548;11.926;2023-05-08T01:03:35;13.50;99.90
21698;DHT22;11010;49.548;11.926;2023-05-08T01:06:02;13.70;99.90
21698;DHT22;11010;49.548;11.926;2023-05-08T01:08:30;13.60;99.90
21698;DHT22;11010;49.548;11.926;2023-05-08T01:16:43;13.30;99.90
21698;DHT22;11010;49.548;11.926;2023-05-08T01:25:15;13.40;99.90
21698;DHT22;11010;49.548;11.926;2023-05-08T01:34:02;13.40;99.90
21698;DHT22;11010;49.548;11.926;2023-05-08T01:37:03;13.60;99.90
21698;DHT22;11010;49.548;11.926;2023-05-08T01:45:20;13.70;99.90
21698;DHT22;11010;49.548;11.926;2023-05-08T01:47:50;13.60;99.90
21698;DHT22;11010;49.548;11.926;2023-05-08T01:50:24;13.40;99.90
21698;DHT22;11010;49.548;11.926;2023-05-08T01:53:04;13.50;99.90
21698;DHT22;11010;49.548;11.926;2023-05-08T01:55:35;13.40;99.90
21698;DHT22;11010;49.548;11.926;2023-05-08T01:58:08;13.50;99.90
21698;DHT22;11010;49.548;11.926;2023-05-08T02:00:39;13.40;99.90
21698;DHT22;11010;49.548;11.926;2023-05-08T02:03:08;13.50;99.90
21698;DHT22;11010;49.548;11.926;2023-05-08T02:05:38;13.60;99.90
21698;DHT22;11010;49.548;11.926;2023-05-08T02:08:08;13.60;99.90
21698;DHT22;11010;49.548;11.926;2023-05-08T02:10:36;13.50;99.90
21698;DHT22;11010;49.548;11.926;2023-05-08T02:13:04;13.20;99.90
21698;DHT22;11010;49.548;11.926;2023-05-08T02:15:32;13.40;99.90
21698;DHT22;11010;49.548;11.926;2023-05-08T02:18:07;13.40;99.90
21698;DHT22;11010;49.548;11.926;2023-05-08T02:20:35;13.30;99.90
21698;DHT22;11010;49.548;11.926;2023-05-08T02:23:03;13.20;99.90
21698;DHT22;11010;49.548;11.926;2023-05-08T02:25:31;13.40;99.90
21698;DHT22;11010;49.548;11.926;2023-05-08T02:27:59;13.40;99.90
21698;DHT22;11010;49.548;11.926;2023-05-08T02:30:27;13.50;99.90
21698;DHT22;11010;49.548;11.926;2023-05-08T02:32:56;13.40;99.90
21698;DHT22;11010;49.548;11.926;2023-05-08T02:35:27;13.40;99.90
21698;DHT22;11010;49.548;11.926;2023-05-08T02:37:57;13.40;99.90
21698;DHT22;11010;49.548;11.926;2023-05-08T02:40:27;13.40;99.90
21698;DHT22;11010;49.548;11.926;2023-05-08T02:42:55;13.20;99.90
21698;DHT22;11010;49.548;11.926;2023-05-08T02:45:25;13.20;99.90
21698;DHT22;11010;49.548;11.926;2023-05-08T02:53:24;13.30;99.90
21698;DHT22;11010;49.548;11.926;2023-05-08T02:55:56;13.30;99.90
21698;DHT22;11010;49.548;11.926;2023-05-08T02:58:43;13.20;99.90
21698;DHT22;11010;49.548;11.926;2023-05-08T03:01:24;12.90;99.90
21698;DHT22;11010;49.548;11.926;2023-05-08T03:04:28;12.90;99.90
21698;DHT22;11010;49.548;11.926;2023-05-08T03:06:59;13.10;99.90
21698;DHT22;11010;49.548;11.926;2023-05-08T03:09:35;13.10;99.90
21698;DHT22;11010;49.548;11.926;2023-05-08T03:12:10;13.00;99.90
21698;DHT22;11010;49.548;11.926;2023-05-08T03:14:44;13.10;99.90
21698;DHT22;11010;49.548;11.926;2023-05-08T03:17:14;12.90;99.90
21698;DHT22;11010;49.548;11.926;2023-05-08T03:19:46;13.00;99.90
21698;DHT22;11010;49.548;11.926;2023-05-08T03:22:18;13.00;99.90
21698;DHT22;11010;49.548;11.926;2023-05-08T03:24:47;13.00;99.90
21698;DHT22;11010;49.548;11.926;2023-05-08T03:27:16;13.00;99.90
21698;DHT22;11010;49.548;11.926;2023-05-08T03:29:44;12.90;99.90
21698;DHT22;11010;49.548;11.926;2023-05-08T03:32:12;13.00;99.90
21698;DHT22;11010;49.548;11.926;2023-05-08T03:34:40;12.80;99.90
21698;DHT22;11010;49.548;11.926;2023-05-08T03:37:08;13.00;99.90
21698;DHT22;11010;49.548;11.926;2023-05-08T03:39:35;12.80;99.90
21698;DHT22;11010;49.548;11.926;2023-05-08T03:42:03;12.70;99.90
21698;DHT22;11010;49.548;11.926;2023-05-08T03:44:31;12.80;99.90
21698;DHT22;11010;49.548;11.926;2023-05-08T03:46:59;12.80;99.90
21698;DHT22;11010;49.548;11.926;2023-05-08T03:49:28;12.80;99.90
21698;DHT22;11010;49.548;11.926;2023-05-08T03:51:58;12.80;99.90
21698;DHT22;11010;49.548;11.926;2023-05-08T03:54:25;12.90;99.90
21698;DHT22;11010;49.548;11.926;2023-05-08T03:56:54;12.90;99.90
21698;DHT22;11010;49.548;11.926;2023-05-08T03:59:45;12.80;99.90
21698;DHT22;11010;49.548;11.926;2023-05-08T04:02:24;12.90;99.90
21698;DHT22;11010;49.548;11.926;2023-05-08T04:05:01;12.70;99.90
21698;DHT22;11010;49.548;11.926;2023-05-08T04:07:50;12.90;99.90
21698;DHT22;11010;49.548;11.926;2023-05-08T04:10:31;12.70;99.90
21698;DHT22;11010;49.548;11.926;2023-05-08T04:13:06;12.80;99.90
21698;DHT22;11010;49.548;11.926;2023-05-08T04:15:54;12.70;99.90
21698;DHT22;11010;49.548;11.926;2023-05-08T04:18:27;12.90;99.90
21698;DHT22;11010;49.548;11.926;2023-05-08T04:20:59;12.60;99.90
21698;DHT22;11010;49.548;11.926;2023-05-08T04:23:28;12.50;99.90
21698;DHT22;11010;49.548;11.926;2023-05-08T04:25:57;12.30;99.90
21698;DHT22;11010;49.548;11.926;2023-05-08T04:28:26;12.40;99.90
21698;DHT22;11010;49.548;11.926;2023-05-08T04:30:54;12.50;99.90
21698;DHT22;11010;49.548;11.926;2023-05-08T04:33:23;12.60;99.90
21698;DHT22;11010;49.548;11.926;2023-05-08T04:35:51;12.60;99.90
21698;DHT22;11010;49.548;11.926;2023-05-08T04:38:18;12.60;99.90
21698;DHT22;11010;49.548;11.926;2023-05-08T04:40:45;12.70;99.90
21698;DHT22;11010;49.548;11.926;2023-05-08T04:43:12;12.70;99.90
21698;DHT22;11010;49.548;11.926;2023-05-08T04:45:40;12.60;99.90
21698;DHT22;11010;49.548;11.926;2023-05-08T04:48:07;12.60;99.90
21698;DHT22;11010;49.548;11.926;2023-05-08T04:50:34;12.70;99.90
21698;DHT22;11010;49.548;11.926;2023-05-08T04:53:01;12.60;99.90
21698;DHT22;11010;49.548;11.926;2023-05-08T04:55:28;12.50;99.90
21698;DHT22;11010;49.548;11.926;2023-05-08T04:57:56;12.60;99.90
21698;DHT22;11010;49.548;11.926;2023-05-08T05:00:23;12.60;99.90
21698;DHT22;11010;49.548;11.926;2023-05-08T05:02:51;12.80;99.90
21698;DHT22;11010;49.548;11.926;2023-05-08T05:05:19;12.70;99.90
21698;DHT22;11010;49.548;11.926;2023-05-08T05:07:46;12.70;99.90
21698;DHT22;11010;49.548;11.926;2023-05-08T05:10:14;12.70;99.90
21698;DHT22;11010;49.548;11.926;2023-05-08T05:12:41;12.80;99.90
21698;DHT22;11010;49.548;11.926;2023-05-08T05:15:09;12.60;99.90
21698;DHT22;11010;49.548;11.926;2023-05-08T05:17:37;12.60;99.90
21698;DHT22;11010;49.548;11.926;2023-05-08T05:20:05;12.70;99.90
21698;DHT22;11010;49.548;11.926;2023-05-08T05:22:34;12.70;99.90
21698;DHT22;11010;49.548;11.926;2023-05-08T05:25:02;12.70;99.90
21698;DHT22;11010;49.548;11.926;2023-05-08T05:27:30;12.50;99.90
21698;DHT22;11010;49.548;11.926;2023-05-08T05:29:57;12.60;99.90
21698;DHT22;11010;49.548;11.926;2023-05-08T05:32:25;12.70;99.90
21698;DHT22;11010;49.548;11.926;2023-05-08T05:34:53;12.50;99.90
21698;DHT22;11010;49.548;11.926;2023-05-08T05:37:20;12.50;99.90
21698;DHT22;11010;49.548;11.926;2023-05-08T05:39:48;12.40;99.90
21698;DHT22;11010;49.548;11.926;2023-05-08T05:42:15;12.60;99.90
21698;DHT22;11010;49.548;11.926;2023-05-08T05:44:42;12.60;99.90
21698;DHT22;11010;49.548;11.926;2023-05-08T05:47:10;12.70;99.90
21698;DHT22;11010;49.548;11.926;2023-05-08T05:49:39;12.70;99.90
21698;DHT22;11010;49.548;11.926;2023-05-08T05:52:13;12.70;99.90
21698;DHT22;11010;49.548;11.926;2023-05-08T05:54:40;12.70;99.90
21698;DHT22;11010;49.548;11.926;2023-05-08T05:57:08;12.80;99.90
21698;DHT22;11010;49.548;11.926;2023-05-08T05:59:36;12.60;99.90
21698;DHT22;11010;49.548;11.926;2023-05-08T06:02:03;12.70;99.90
21698;DHT22;11010;49.548;11.926;2023-05-08T06:04:30;12.70;99.90
21698;DHT22;11010;49.548;11.926;2023-05-08T06:06:57;12.70;99.90
21698;DHT22;11010;49.548;11.926;2023-05-08T06:09:24;12.80;99.90
21698;DHT22;11010;49.548;11.926;2023-05-08T06:11:51;12.80;99.90
21698;DHT22;11010;49.548;11.926;2023-05-08T06:14:19;12.90;99.90
21698;DHT22;11010;49.548;11.926;2023-05-08T06:16:46;12.80;99.90
21698;DHT22;11010;49.548;11.926;2023-05-08T06:19:14;12.80;99.90
21698;DHT22;11010;49.548;11.926;2023-05-08T06:21:41;12.80;99.90
21698;DHT22;11010;49.548;11.926;2023-05-08T06:24:08;12.90;99.90
21698;DHT22;11010;49.548;11.926;2023-05-08T06:26:36;12.90;99.90
21698;DHT22;11010;49.548;11.926;2023-05-08T06:29:03;12.80;99.90
21698;DHT22;11010;49.548;11.926;2023-05-08T06:31:30;12.90;99.90
21698;DHT22;11010;49.548;11.926;2023-05-08T06:33:57;13.00;99.90
21698;DHT22;11010;49.548;11.926;2023-05-08T06:36:24;13.10;99.90
21698;DHT22;11010;49.548;11.926;2023-05-08T06:38:53;12.90;99.90
21698;DHT22;11010;49.548;11.926;2023-05-08T06:41:20;13.00;99.90
21698;DHT22;11010;49.548;11.926;2023-05-08T06:43:47;13.10;99.90
21698;DHT22;11010;49.548;11.926;2023-05-08T06:46:14;13.10;99.90
21698;DHT22;11010;49.548;11.926;2023-05-08T06:48:42;13.20;99.90
21698;DHT22;11010;49.548;11.926;2023-05-08T06:51:09;13.20;99.90
21698;DHT22;11010;49.548;11.926;2023-05-08T06:53:36;13.20;99.90
21698;DHT22;11010;49.548;11.926;2023-05-08T06:56:03;13.20;99.90
21698;DHT22;11010;49.548;11.926;2023-05-08T06:58:31;13.30;99.90
21698;DHT22;11010;49.548;11.926;2023-05-08T07:00:59;13.10;99.90
21698;DHT22;11010;49.548;11.926;2023-05-08T07:03:27;13.10;99.90
21698;DHT22;11010;49.548;11.926;2023-05-08T07:05:54;13.20;99.90
21698;DHT22;11010;49.548;11.926;2023-05-08T07:08:22;13.30;99.90
21698;DHT22;11010;49.548;11.926;2023-05-08T07:10:49;13.30;99.90
21698;DHT22;11010;49.548;11.926;2023-05-08T07:13:16;13.30;99.90
21698;DHT22;11010;49.548;11.926;2023-05-08T07:15:47;13.40;99.90
21698;DHT22;11010;49.548;11.926;2023-05-08T07:18:14;13.40;99.90
21698;DHT22;11010;49.548;11.926;2023-05-08T07:20:41;13.50;99.90
21698;DHT22;11010;49.548;11.926;2023-05-08T07:23:09;13.60;99.90
21698;DHT22;11010;49.548;11.926;2023-05-08T07:25:36;13.50;99.90
21698;DHT22;11010;49.548;11.926;2023-05-08T07:28:03;13.70;99.90
21698;DHT22;11010;49.548;11.926;2023-05-08T07:30:30;13.70;99.90
21698;DHT22;11010;49.548;11.926;2023-05-08T07:32:57;13.70;99.90
21698;DHT22;11010;49.548;11.926;2023-05-08T07:35:24;13.70;99.90
21698;DHT22;11010;49.548;11.926;2023-05-08T07:37:51;13.80;99.90
21698;DHT22;11010;49.548;11.926;2023-05-08T07:40:18;13.90;99.90
21698;DHT22;11010;49.548;11.926;2023-05-08T07:42:46;13.80;99.90
21698;DHT22;11010;49.548;11.926;2023-05-08T07:45:13;13.80;99.90
21698;DHT22;11010;49.548;11.926;2023-05-08T07:47:55;14.00;99.90
21698;DHT22;11010;49.548;11.926;2023-05-08T07:50:23;14.10;99.90
21698;DHT22;11010;49.548;11.926;2023-05-08T07:52:51;14.00;99.90
21698;DHT22;11010;49.548;11.926;2023-05-08T07:55:19;14.00;99.90
21698;DHT22;11010;49.548;11.926;2023-05-08T07:57:46;14.10;99.90
21698;DHT22;11010;49.548;11.926;2023-05-08T08:00:14;14.20;99.90
21698;DHT22;11010;49.548;11.926;2023-05-08T08:02:43;14.10;99.90
21698;DHT22;11010;49.548;11.926;2023-05-08T08:05:10;14.30;99.90
21698;DHT22;11010;49.548;11.926;2023-05-08T08:07:38;14.30;99.90
21698;DHT22;11010;49.548;11.926;2023-05-08T08:10:06;14.40;99.90
21698;DHT22;11010;49.548;11.926;2023-05-08T08:12:33;14.30;99.90
21698;DHT22;11010;49.548;11.926;2023-05-08T08:15:00;14.30;99.90
21698;DHT22;11010;49.548;11.926;2023-05-08T08:17:27;14.40;99.90
21698;DHT22;11010;49.548;11.926;2023-05-08T08:19:55;14.40;99.90
21698;DHT22;11010;49.548;11.926;2023-05-08T08:22:24;14.60;99.90
21698;DHT22;11010;49.548;11.926;2023-05-08T08:24:54;14.60;99.90
21698;DHT22;11010;49.548;11.926;2023-05-08T08:27:22;14.70;99.90
21698;DHT22;11010;49.548;11.926;2023-05-08T08:29:49;14.70;99.90
21698;DHT22;11010;49.548;11.926;2023-05-08T08:32:24;14.80;99.90
21698;DHT22;11010;49.548;11.926;2023-05-08T08:34:51;14.80;99.90
21698;DHT22;11010;49.548;11.926;2023-05-08T08:37:18;14.80;99.90
21698;DHT22;11010;49.548;11.926;2023-05-08T08:39:45;14.90;99.90
21698;DHT22;11010;49.548;11.926;2023-05-08T08:42:14;15.00;99.90
21698;DHT22;11010;49.548;11.926;2023-05-08T08:44:41;15.00;99.90
21698;DHT22;11010;49.548;11.926;2023-05-08T08:47:10;15.00;99.90
21698;DHT22;11010;49.548;11.926;2023-05-08T08:49:44;15.00;99.90
21698;DHT22;11010;49.548;11.926;2023-05-08T08:52:40;15.10;99.90
21698;DHT22;11010;49.548;11.926;2023-05-08T08:55:11;15.20;99.90
21698;DHT22;11010;49.548;11.926;2023-05-08T09:00:18;15.30;99.90
21698;DHT22;11010;49.548;11.926;2023-05-08T09:02:47;15.40;99.90
21698;DHT22;11010;49.548;11.926;2023-05-08T09:05:14;15.40;99.90
21698;DHT22;11010;49.548;11.926;2023-05-08T09:07:42;15.50;99.90
21698;DHT22;11010;49.548;11.926;2023-05-08T09:10:09;15.50;99.90
21698;DHT22;11010;49.548;11.926;2023-05-08T09:12:41;15.60;99.90
21698;DHT22;11010;49.548;11.926;2023-05-08T09:15:08;15.60;99.90
21698;DHT22;11010;49.548;11.926;2023-05-08T09:17:36;15.70;99.90
21698;DHT22;11010;49.548;11.926;2023-05-08T09:20:03;15.70;99.90
21698;DHT22;11010;49.548;11.926;2023-05-08T09:22:31;15.70;99.90
21698;DHT22;11010;49.548;11.926;2023-05-08T09:25:02;15.80;99.90
21698;DHT22;11010;49.548;11.926;2023-05-08T09:27:30;15.90;99.90
21698;DHT22;11010;49.548;11.926;2023-05-08T09:32:34;16.10;99.90
21698;DHT22;11010;49.548;11.926;2023-05-08T09:35:02;16.20;99.90
21698;DHT22;11010;49.548;11.926;2023-05-08T09:37:29;16.30;99.90
21698;DHT22;11010;49.548;11.926;2023-05-08T09:42:39;16.40;99.90
21698;DHT22;11010;49.548;11.926;2023-05-08T09:45:07;16.60;99.90
21698;DHT22;11010;49.548;11.926;2023-05-08T09:47:34;16.60;99.90
21698;DHT22;11010;49.548;11.926;2023-05-08T09:50:05;16.80;99.90
21698;DHT22;11010;49.548;11.926;2023-05-08T09:52:34;16.80;99.90
21698;DHT22;11010;49.548;11.926;2023-05-08T09:55:04;16.90;99.90
21698;DHT22;11010;49.548;11.926;2023-05-08T09:57:33;16.90;99.90
21698;DHT22;11010;49.548;11.926;2023-05-08T10:00:12;16.90;99.90
21698;DHT22;11010;49.548;11.926;2023-05-08T10:02:41;16.90;99.90
21698;DHT22;11010;49.548;11.926;2023-05-08T10:05:31;16.80;99.90
21698;DHT22;11010;49.548;11.926;2023-05-08T10:08:19;16.90;99.90
21698;DHT22;11010;49.548;11.926;2023-05-08T10:10:47;16.90;99.90
21698;DHT22;11010;49.548;11.926;2023-05-08T10:13:14;16.90;99.90
21698;DHT22;11010;49.548;11.926;2023-05-08T10:15:42;17.10;99.90
21698;DHT22;11010;49.548;11.926;2023-05-08T10:18:10;17.10;99.90
21698;DHT22;11010;49.548;11.926;2023-05-08T10:20:41;17.10;99.90
21698;DHT22;11010;49.548;11.926;2023-05-08T10:23:14;17.10;99.90
21698;DHT22;11010;49.548;11.926;2023-05-08T10:25:47;17.10;99.90
21698;DHT22;11010;49.548;11.926;2023-05-08T10:31:34;17.30;99.90
21698;DHT22;11010;49.548;11.926;2023-05-08T10:34:02;17.60;99.90
21698;DHT22;11010;49.548;11.926;2023-05-08T10:36:29;17.70;99.90
21698;DHT22;11010;49.548;11.926;2023-05-08T10:38:58;17.70;99.90
21698;DHT22;11010;49.548;11.926;2023-05-08T10:41:25;17.70;99.90
21698;DHT22;11010;49.548;11.926;2023-05-08T10:43:53;17.60;99.90
21698;DHT22;11010;49.548;11.926;2023-05-08T10:52:53;17.80;99.90
21698;DHT22;11010;49.548;11.926;2023-05-08T10:55:29;17.80;99.90
21698;DHT22;11010;49.548;11.926;2023-05-08T10:58:31;17.60;99.90
21698;DHT22;11010;49.548;11.926;2023-05-08T11:03:27;17.80;99.90
21698;DHT22;11010;49.548;11.926;2023-05-08T11:05:59;17.80;99.90
21698;DHT22;11010;49.548;11.926;2023-05-08T11:08:28;17.90;99.90
21698;DHT22;11010;49.548;11.926;2023-05-08T11:15:59;18.00;99.90
21698;DHT22;11010;49.548;11.926;2023-05-08T11:18:27;18.00;99.90
21698;DHT22;11010;49.548;11.926;2023-05-08T11:21:14;18.20;99.90
21698;DHT22;11010;49.548;11.926;2023-05-08T11:23:55;18.20;99.90
21698;DHT22;11010;49.548;11.926;2023-05-08T11:26:38;18.30;99.90
21698;DHT22;11010;49.548;11.926;2023-05-08T11:29:17;18.20;99.90
21698;DHT22;11010;49.548;11.926;2023-05-08T11:31:51;18.20;99.90
21698;DHT22;11010;49.548;11.926;2023-05-08T11:37:19;17.90;99.90
21698;DHT22;11010;49.548;11.926;2023-05-08T11:39:47;18.00;99.90
21698;DHT22;11010;49.548;11.926;2023-05-08T11:47:41;18.20;99.90
21698;DHT22;11010;49.548;11.926;2023-05-08T11:50:10;18.20;99.90
21698;DHT22;11010;49.548;11.926;2023-05-08T11:52:39;18.30;99.90
21698;DHT22;11010;49.548;11.926;2023-05-08T11:55:08;18.30;99.90
21698;DHT22;11010;49.548;11.926;2023-05-08T11:57:35;18.30;99.90
21698;DHT22;11010;49.548;11.926;2023-05-08T12:00:12;18.30;99.90
21698;DHT22;11010;49.548;11.926;2023-05-08T12:02:41;18.30;99.90
21698;DHT22;11010;49.548;11.926;2023-05-08T12:05:10;18.40;99.90
21698;DHT22;11010;49.548;11.926;2023-05-08T12:07:46;18.50;99.90
21698;DHT22;11010;49.548;11.926;2023-05-08T12:10:14;18.40;99.90
21698;DHT22;11010;49.548;11.926;2023-05-08T12:12:43;18.40;99.90
21698;DHT22;11010;49.548;11.926;2023-05-08T12:15:13;18.40;99.90
21698;DHT22;11010;49.548;11.926;2023-05-08T12:17:41;18.60;99.90
21698;DHT22;11010;49.548;11.926;2023-05-08T12:20:17;18.80;99.90
21698;DHT22;11010;49.548;11.926;2023-05-08T12:22:52;18.80;99.90
21698;DHT22;11010;49.548;11.926;2023-05-08T12:25:19;18.90;99.90
21698;DHT22;11010;49.548;11.926;2023-05-08T12:27:46;19.00;99.90
21698;DHT22;11010;49.548;11.926;2023-05-08T12:30:14;19.00;99.90
21698;DHT22;11010;49.548;11.926;2023-05-08T12:32:43;19.20;99.90
21698;DHT22;11010;49.548;11.926;2023-05-08T12:35:11;19.30;99.90
21698;DHT22;11010;49.548;11.926;2023-05-08T12:37:39;19.30;99.90
21698;DHT22;11010;49.548;11.926;2023-05-08T12:40:07;19.30;99.90
21698;DHT22;11010;49.548;11.926;2023-05-08T12:42:44;19.30;99.90
21698;DHT22;11010;49.548;11.926;2023-05-08T12:45:25;19.30;99.90
21698;DHT22;11010;49.548;11.926;2023-05-08T12:47:59;19.20;99.90
21698;DHT22;11010;49.548;11.926;2023-05-08T12:50:27;19.30;99.90
21698;DHT22;11010;49.548;11.926;2023-05-08T12:53:07;19.50;99.90
21698;DHT22;11010;49.548;11.926;2023-05-08T12:55:36;19.60;99.90
21698;DHT22;11010;49.548;11.926;2023-05-08T13:00:47;19.70;99.90
21698;DHT22;11010;49.548;11.926;2023-05-08T13:03:27;19.80;99.90
21698;DHT22;11010;49.548;11.926;2023-05-08T13:05:56;20.50;99.90
21698;DHT22;11010;49.548;11.926;2023-05-08T13:08:37;20.40;99.90
21698;DHT22;11010;49.548;11.926;2023-05-08T13:11:05;20.80;99.90
21698;DHT22;11010;49.548;11.926;2023-05-08T13:13:34;20.80;99.90
21698;DHT22;11010;49.548;11.926;2023-05-08T13:16:05;21.20;99.90
21698;DHT22;11010;49.548;11.926;2023-05-08T13:18:33;21.40;99.90
21698;DHT22;11010;49.548;11.926;2023-05-08T13:21:04;21.40;99.90
21698;DHT22;11010;49.548;11.926;2023-05-08T13:23:31;21.40;99.90
21698;DHT22;11010;49.548;11.926;2023-05-08T13:25:58;21.30;99.90
21698;DHT22;11010;49.548;11.926;2023-05-08T13:28:25;21.00;99.90
21698;DHT22;11010;49.548;11.926;2023-05-08T13:30:52;21.20;99.90
21698;DHT22;11010;49.548;11.926;2023-05-08T13:33:19;21.10;99.90
21698;DHT22;11010;49.548;11.926;2023-05-08T13:35:46;21.00;99.90
21698;DHT22;11010;49.548;11.926;2023-05-08T13:38:13;20.90;99.90
21698;DHT22;11010;49.548;11.926;2023-05-08T13:40:40;21.00;99.90
21698;DHT22;11010;49.548;11.926;2023-05-08T13:43:07;21.00;99.90
21698;DHT22;11010;49.548;11.926;2023-05-08T13:45:34;20.90;99.90
21698;DHT22;11010;49.548;11.926;2023-05-08T13:48:02;20.80;99.90
21698;DHT22;11010;49.548;11.926;2023-05-08T13:50:29;20.90;99.90
21698;DHT22;11010;49.548;11.926;2023-05-08T13:52:56;20.90;99.90
21698;DHT22;11010;49.548;11.926;2023-05-08T13:55:23;21.20;99.90
21698;DHT22;11010;49.548;11.926;2023-05-08T13:57:50;21.30;99.90
21698;DHT22;11010;49.548;11.926;2023-05-08T14:00:18;21.20;99.90
21698;DHT22;11010;49.548;11.926;2023-05-08T14:02:45;21.50;99.90
21698;DHT22;11010;49.548;11.926;2023-05-08T14:05:12;21.40;99.90
21698;DHT22;11010;49.548;11.926;2023-05-08T14:07:39;21.20;99.90
21698;DHT22;11010;49.548;11.926;2023-05-08T14:10:07;20.70;99.90
21698;DHT22;11010;49.548;11.926;2023-05-08T14:12:34;20.80;99.90
21698;DHT22;11010;49.548;11.926;2023-05-08T14:15:04;20.70;99.90
21698;DHT22;11010;49.548;11.926;2023-05-08T14:17:31;20.70;99.90
21698;DHT22;11010;49.548;11.926;2023-05-08T14:19:58;20.70;99.90
21698;DHT22;11010;49.548;11.926;2023-05-08T14:22:26;20.60;99.90
21698;DHT22;11010;49.548;11.926;2023-05-08T14:24:53;20.70;99.90
21698;DHT22;11010;49.548;11.926;2023-05-08T14:27:20;20.50;99.90
21698;DHT22;11010;49.548;11.926;2023-05-08T14:29:47;20.40;99.90
21698;DHT22;11010;49.548;11.926;2023-05-08T14:32:15;20.40;99.90
21698;DHT22;11010;49.548;11.926;2023-05-08T14:34:42;20.10;99.90
21698;DHT22;11010;49.548;11.926;2023-05-08T14:37:09;20.10;99.90
21698;DHT22;11010;49.548;11.926;2023-05-08T14:39:37;20.10;99.90
21698;DHT22;11010;49.548;11.926;2023-05-08T14:42:04;20.10;99.90
21698;DHT22;11010;49.548;11.926;2023-05-08T14:44:48;20.00;99.90
21698;DHT22;11010;49.548;11.926;2023-05-08T14:47:15;19.80;99.90
21698;DHT22;11010;49.548;11.926;2023-05-08T14:49:42;19.60;99.90
21698;DHT22;11010;49.548;11.926;2023-05-08T14:52:09;19.70;99.90
21698;DHT22;11010;49.548;11.926;2023-05-08T14:54:36;19.80;99.90
21698;DHT22;11010;49.548;11.926;2023-05-08T14:57:04;19.80;99.90
21698;DHT22;11010;49.548;11.926;2023-05-08T14:59:31;19.60;99.90
21698;DHT22;11010;49.548;11.926;2023-05-08T15:01:58;19.60;99.90
21698;DHT22;11010;49.548;11.926;2023-05-08T15:04:25;19.60;99.90
21698;DHT22;11010;49.548;11.926;2023-05-08T15:06:53;19.50;99.90
21698;DHT22;11010;49.548;11.926;2023-05-08T15:09:20;19.70;99.90
21698;DHT22;11010;49.548;11.926;2023-05-08T15:11:47;19.70;99.90
21698;DHT22;11010;49.548;11.926;2023-05-08T15:14:14;19.50;99.90
21698;DHT22;11010;49.548;11.926;2023-05-08T15:16:41;19.40;99.90
21698;DHT22;11010;49.548;11.926;2023-05-08T15:19:08;19.40;99.90
21698;DHT22;11010;49.548;11.926;2023-05-08T15:21:35;19.50;99.90
21698;DHT22;11010;49.548;11.926;2023-05-08T15:24:02;19.40;99.90
21698;DHT22;11010;49.548;11.926;2023-05-08T15:26:30;19.50;99.90
21698;DHT22;11010;49.548;11.926;2023-05-08T15:28:57;19.30;99.90
21698;DHT22;11010;49.548;11.926;2023-05-08T15:31:24;19.40;99.90
21698;DHT22;11010;49.548;11.926;2023-05-08T15:33:51;19.40;99.90
21698;DHT22;11010;49.548;11.926;2023-05-08T15:36:18;19.20;99.90
21698;DHT22;11010;49.548;11.926;2023-05-08T15:38:45;19.20;99.90
21698;DHT22;11010;49.548;11.926;2023-05-08T15:41:14;19.40;99.90
21698;DHT22;11010;49.548;11.926;2023-05-08T15:43:42;19.40;99.90
21698;DHT22;11010;49.548;11.926;2023-05-08T15:46:11;19.50;99.90
21698;DHT22;11010;49.548;11.926;2023-05-08T15:48:38;19.50;99.90
21698;DHT22;11010;49.548;11.926;2023-05-08T15:51:05;19.30;99.90
21698;DHT22;11010;49.548;11.926;2023-05-08T15:53:32;19.30;99.90
21698;DHT22;11010;49.548;11.926;2023-05-08T15:56:00;19.30;99.90
21698;DHT22;11010;49.548;11.926;2023-05-08T15:58:27;19.30;99.90
21698;DHT22;11010;49.548;11.926;2023-05-08T16:00:54;19.20;99.90
21698;DHT22;11010;49.548;11.926;2023-05-08T16:03:23;19.30;99.90
21698;DHT22;11010;49.548;11.926;2023-05-08T16:05:50;19.20;99.90
21698;DHT22;11010;49.548;11.926;2023-05-08T16:08:17;19.00;99.90
21698;DHT22;11010;49.548;11.926;2023-05-08T16:10:44;19.10;99.90
21698;DHT22;11010;49.548;11.926;2023-05-08T16:13:11;19.10;99.90
21698;DHT22;11010;49.548;11.926;2023-05-08T16:15:39;19.10;99.90
21698;DHT22;11010;49.548;11.926;2023-05-08T16:18:06;19.10;99.90
21698;DHT22;11010;49.548;11.926;2023-05-08T16:20:34;18.90;99.90
21698;DHT22;11010;49.548;11.926;2023-05-08T16:23:02;18.80;99.90
21698;DHT22;11010;49.548;11.926;2023-05-08T16:25:29;18.80;99.90
21698;DHT22;11010;49.548;11.926;2023-05-08T16:27:56;18.80;99.90
21698;DHT22;11010;49.548;11.926;2023-05-08T16:30:23;18.80;99.90
21698;DHT22;11010;49.548;11.926;2023-05-08T16:32:50;18.90;99.90
21698;DHT22;11010;49.548;11.926;2023-05-08T16:35:18;19.00;99.90